sensor_id;sensor_type;location;lat;lon;timestamp;pressure;altitude;pressure_sealevel;temperature;humidity
69570;BME280;56781;42.292;23.146;2023-02-10T00:02:08;97312.91;;;-7.62;86.36
69570;BME280;56781;42.292;23.146;2023-02-10T00:04:35;97325.47;;;-7.57;86.31
69570;BME280;56781;42.292;23.146;2023-02-10T00:07:02;97339.28;;;-7.56;86.12
69570;BME280;56781;42.292;23.146;2023-02-10T00:09:29;97330.63;;;-7.47;85.66
69570;BME280;56781;42.292;23.146;2023-02-10T00:11:57;97317.41;;;-7.64;86.13
69570;BME280;56781;42.292;23.146;2023-02-10T00:14:24;97327.09;;;-7.56;86.50
69570;BME280;56781;42.292;23.146;2023-02-10T00:16:52;97316.31;;;-7.61;86.67
69570;BME280;56781;42.292;23.146;2023-02-10T00:19:20;97328.78;;;-7.65;86.78
69570;BME280;56781;42.292;23.146;2023-02-10T00:21:48;97352.28;;;-7.56;86.15
69570;BME280;56781;42.292;23.146;2023-02-10T00:24:16;97329.31;;;-7.71;86.63
69570;BME280;56781;42.292;23.146;2023-02-10T00:26:43;97312.78;;;-7.80;86.24
69570;BME280;56781;42.292;23.146;2023-02-10T00:29:10;97361.88;;;-7.57;86.75
69570;BME280;56781;42.292;23.146;2023-02-10T00:31:38;97317.28;;;-7.72;87.08
69570;BME280;56781;42.292;23.146;2023-02-10T00:34:06;97333.69;;;-7.62;86.51
69570;BME280;56781;42.292;23.146;2023-02-10T00:36:33;97311.28;;;-7.72;87.11
69570;BME280;56781;42.292;23.146;2023-02-10T00:39:00;97310.88;;;-7.87;87.04
69570;BME280;56781;42.292;23.146;2023-02-10T00:41:27;97353.41;;;-7.69;87.60
69570;BME280;56781;42.292;23.146;2023-02-10T00:43:54;97308.59;;;-8.00;88.29
69570;BME280;56781;42.292;23.146;2023-02-10T00:46:22;97315.28;;;-7.88;88.34
69570;BME280;56781;42.292;23.146;2023-02-10T00:48:50;97319.78;;;-7.80;88.17
69570;BME280;56781;42.292;23.146;2023-02-10T00:51:17;97313.50;;;-7.87;87.16
69570;BME280;56781;42.292;23.146;2023-02-10T00:53:45;97307.78;;;-8.00;87.21
69570;BME280;56781;42.292;23.146;2023-02-10T00:56:12;97311.09;;;-8.08;87.47
69570;BME280;56781;42.292;23.146;2023-02-10T00:58:39;97312.59;;;-8.06;87.50
69570;BME280;56781;42.292;23.146;2023-02-10T01:01:07;97309.97;;;-8.15;87.90
69570;BME280;56781;42.292;23.146;2023-02-10T01:03:34;97305.31;;;-8.12;88.09
69570;BME280;56781;42.292;23.146;2023-02-10T01:06:02;97320.38;;;-8.06;88.00
69570;BME280;56781;42.292;23.146;2023-02-10T01:08:29;97292.38;;;-8.21;88.42
69570;BME280;56781;42.292;23.146;2023-02-10T01:11:03;97336.38;;;-8.00;88.32
69570;BME280;56781;42.292;23.146;2023-02-10T01:13:31;97300.72;;;-8.28;89.27
69570;BME280;56781;42.292;23.146;2023-02-10T01:16:00;97295.22;;;-8.15;88.67
69570;BME280;56781;42.292;23.146;2023-02-10T01:18:28;97290.31;;;-8.28;88.65
69570;BME280;56781;42.292;23.146;2023-02-10T01:20:55;97286.25;;;-8.59;89.71
69570;BME280;56781;42.292;23.146;2023-02-10T01:23:22;97320.13;;;-8.41;89.89
69570;BME280;56781;42.292;23.146;2023-02-10T01:25:49;97299.91;;;-8.48;90.46
69570;BME280;56781;42.292;23.146;2023-02-10T01:28:16;97303.47;;;-8.49;89.77
69570;BME280;56781;42.292;23.146;2023-02-10T01:30:43;97341.00;;;-8.33;89.94
69570;BME280;56781;42.292;23.146;2023-02-10T01:33:10;97334.88;;;-8.32;90.25
69570;BME280;56781;42.292;23.146;2023-02-10T01:35:38;97290.19;;;-8.55;89.51
69570;BME280;56781;42.292;23.146;2023-02-10T01:38:05;97299.91;;;-8.67;89.97
69570;BME280;56781;42.292;23.146;2023-02-10T01:40:32;97305.66;;;-8.73;90.29
69570;BME280;56781;42.292;23.146;2023-02-10T01:42:59;97297.13;;;-8.95;90.76
69570;BME280;56781;42.292;23.146;2023-02-10T01:45:35;97333.22;;;-8.72;91.76
69570;BME280;56781;42.292;23.146;2023-02-10T01:48:03;97292.09;;;-8.86;91.16
69570;BME280;56781;42.292;23.146;2023-02-10T01:50:44;97285.56;;;-8.81;91.25
69570;BME280;56781;42.292;23.146;2023-02-10T01:53:15;97292.75;;;-8.94;90.50
69570;BME280;56781;42.292;23.146;2023-02-10T01:55:44;97329.16;;;-8.65;91.02
69570;BME280;56781;42.292;23.146;2023-02-10T01:58:14;97304.13;;;-8.76;90.66
69570;BME280;56781;42.292;23.146;2023-02-10T02:00:43;97281.03;;;-8.88;91.16
69570;BME280;56781;42.292;23.146;2023-02-10T02:03:10;97293.09;;;-8.68;90.36
69570;BME280;56781;42.292;23.146;2023-02-10T02:05:40;97285.97;;;-8.66;90.15
69570;BME280;56781;42.292;23.146;2023-02-10T02:10:52;97277.75;;;-8.81;90.58
69570;BME280;56781;42.292;23.146;2023-02-10T02:13:47;97269.03;;;-8.89;90.86
69570;BME280;56781;42.292;23.146;2023-02-10T02:22:46;97305.66;;;-8.54;89.51
69570;BME280;56781;42.292;23.146;2023-02-10T02:25:30;97303.19;;;-8.65;89.22
69570;BME280;56781;42.292;23.146;2023-02-10T02:28:37;97284.03;;;-8.83;90.51
69570;BME280;56781;42.292;23.146;2023-02-10T02:31:30;97299.91;;;-8.67;90.37
69570;BME280;56781;42.292;23.146;2023-02-10T02:34:02;97272.56;;;-8.90;90.27
69570;BME280;56781;42.292;23.146;2023-02-10T02:36:56;97312.75;;;-8.65;90.19
69570;BME280;56781;42.292;23.146;2023-02-10T02:39:26;97271.19;;;-8.95;90.43
69570;BME280;56781;42.292;23.146;2023-02-10T02:42:16;97284.44;;;-8.88;91.11
69570;BME280;56781;42.292;23.146;2023-02-10T02:44:47;97277.75;;;-8.90;91.29
69570;BME280;56781;42.292;23.146;2023-02-10T02:47:37;97291.41;;;-8.88;91.40
69570;BME280;56781;42.292;23.146;2023-02-10T02:50:13;97294.69;;;-8.86;91.41
69570;BME280;56781;42.292;23.146;2023-02-10T02:58:26;97318.75;;;-8.75;91.31
69570;BME280;56781;42.292;23.146;2023-02-10T03:00:58;97275.66;;;-9.16;91.04
69570;BME280;56781;42.292;23.146;2023-02-10T03:03:33;97279.56;;;-9.31;91.73
69570;BME280;56781;42.292;23.146;2023-02-10T03:06:01;97274.59;;;-9.54;92.17
69570;BME280;56781;42.292;23.146;2023-02-10T03:08:31;97305.22;;;-9.28;93.04
69570;BME280;56781;42.292;23.146;2023-02-10T03:10:59;97277.06;;;-9.52;92.79
69570;BME280;56781;42.292;23.146;2023-02-10T03:13:27;97296.78;;;-9.30;92.37
69570;BME280;56781;42.292;23.146;2023-02-10T03:15:54;97285.94;;;-9.45;92.67
69570;BME280;56781;42.292;23.146;2023-02-10T03:18:21;97328.19;;;-9.24;92.20
69570;BME280;56781;42.292;23.146;2023-02-10T03:20:48;97304.13;;;-9.35;92.60
69570;BME280;56781;42.292;23.146;2023-02-10T03:23:15;97293.84;;;-9.47;92.50
69570;BME280;56781;42.292;23.146;2023-02-10T03:25:45;97287.66;;;-9.55;92.30
69570;BME280;56781;42.292;23.146;2023-02-10T03:28:13;97295.53;;;-9.36;92.76
69570;BME280;56781;42.292;23.146;2023-02-10T03:30:41;97258.06;;;-9.53;92.32
69570;BME280;56781;42.292;23.146;2023-02-10T03:33:15;97276.13;;;-9.72;92.65
69570;BME280;56781;42.292;23.146;2023-02-10T03:35:43;97284.69;;;-10.12;93.80
69570;BME280;56781;42.292;23.146;2023-02-10T03:38:11;97290.09;;;-10.57;95.60
69570;BME280;56781;42.292;23.146;2023-02-10T03:40:39;97322.88;;;-10.26;96.49
69570;BME280;56781;42.292;23.146;2023-02-10T03:43:06;97321.81;;;-10.44;96.56
69570;BME280;56781;42.292;23.146;2023-02-10T03:45:33;97299.06;;;-10.40;95.83
69570;BME280;56781;42.292;23.146;2023-02-10T03:48:01;97317.75;;;-10.37;95.37
69570;BME280;56781;42.292;23.146;2023-02-10T03:50:29;97296.94;;;-10.67;95.31
69570;BME280;56781;42.292;23.146;2023-02-10T03:52:56;97291.81;;;-10.79;96.18
69570;BME280;56781;42.292;23.146;2023-02-10T03:55:23;97320.78;;;-10.64;96.12
69570;BME280;56781;42.292;23.146;2023-02-10T03:57:50;97308.31;;;-10.59;96.25
69570;BME280;56781;42.292;23.146;2023-02-10T04:00:18;97277.72;;;-10.86;97.06
69570;BME280;56781;42.292;23.146;2023-02-10T04:02:45;97262.84;;;-10.94;97.47
69570;BME280;56781;42.292;23.146;2023-02-10T04:05:12;97260.88;;;-11.01;98.10
69570;BME280;56781;42.292;23.146;2023-02-10T04:07:39;97267.56;;;-10.99;98.85
69570;BME280;56781;42.292;23.146;2023-02-10T04:10:07;97266.28;;;-11.04;98.84
69570;BME280;56781;42.292;23.146;2023-02-10T04:12:34;97265.09;;;-11.00;99.41
69570;BME280;56781;42.292;23.146;2023-02-10T04:15:01;97271.47;;;-11.04;99.40
69570;BME280;56781;42.292;23.146;2023-02-10T04:17:29;97269.22;;;-11.09;99.38
69570;BME280;56781;42.292;23.146;2023-02-10T04:19:56;97295.59;;;-10.83;98.75
69570;BME280;56781;42.292;23.146;2023-02-10T04:22:23;97255.38;;;-11.19;98.50
69570;BME280;56781;42.292;23.146;2023-02-10T04:24:50;97304.97;;;-10.71;98.26
69570;BME280;56781;42.292;23.146;2023-02-10T04:27:17;97257.06;;;-10.97;96.84
69570;BME280;56781;42.292;23.146;2023-02-10T04:29:44;97260.63;;;-10.98;96.75
69570;BME280;56781;42.292;23.146;2023-02-10T04:32:12;97247.72;;;-11.09;96.80
69570;BME280;56781;42.292;23.146;2023-02-10T04:34:39;97261.13;;;-11.04;96.95
69570;BME280;56781;42.292;23.146;2023-02-10T04:37:06;97273.25;;;-10.84;96.61
69570;BME280;56781;42.292;23.146;2023-02-10T04:39:33;97298.41;;;-10.75;97.40
69570;BME280;56781;42.292;23.146;2023-02-10T04:42:00;97299.13;;;-10.84;97.66
69570;BME280;56781;42.292;23.146;2023-02-10T04:44:27;97304.47;;;-10.64;98.02
69570;BME280;56781;42.292;23.146;2023-02-10T04:46:54;97258.63;;;-11.06;97.28
69570;BME280;56781;42.292;23.146;2023-02-10T04:49:22;97267.25;;;-11.17;97.33
69570;BME280;56781;42.292;23.146;2023-02-10T04:51:50;97258.78;;;-11.19;97.92
69570;BME280;56781;42.292;23.146;2023-02-10T04:54:17;97298.84;;;-11.02;97.73
69570;BME280;56781;42.292;23.146;2023-02-10T04:56:44;97278.28;;;-11.14;97.42
69570;BME280;56781;42.292;23.146;2023-02-10T04:59:12;97276.78;;;-11.28;97.38
69570;BME280;56781;42.292;23.146;2023-02-10T05:01:39;97273.53;;;-11.42;98.32
69570;BME280;56781;42.292;23.146;2023-02-10T05:04:06;97289.34;;;-11.35;99.95
69570;BME280;56781;42.292;23.146;2023-02-10T05:06:33;97275.97;;;-11.40;100.00
69570;BME280;56781;42.292;23.146;2023-02-10T05:09:00;97286.53;;;-11.32;99.35
69570;BME280;56781;42.292;23.146;2023-02-10T05:11:28;97291.72;;;-11.21;98.79
69570;BME280;56781;42.292;23.146;2023-02-10T05:13:55;97304.59;;;-11.09;98.50
69570;BME280;56781;42.292;23.146;2023-02-10T05:16:22;97317.94;;;-10.82;97.97
69570;BME280;56781;42.292;23.146;2023-02-10T05:18:49;97316.28;;;-10.83;98.08
69570;BME280;56781;42.292;23.146;2023-02-10T05:21:16;97309.69;;;-10.76;98.20
69570;BME280;56781;42.292;23.146;2023-02-10T05:23:43;97348.13;;;-10.39;97.74
69570;BME280;56781;42.292;23.146;2023-02-10T05:26:11;97342.72;;;-10.36;97.22
69570;BME280;56781;42.292;23.146;2023-02-10T05:28:38;97314.56;;;-10.61;96.09
69570;BME280;56781;42.292;23.146;2023-02-10T05:31:05;97348.34;;;-10.31;95.41
69570;BME280;56781;42.292;23.146;2023-02-10T05:33:34;97304.47;;;-10.64;94.74
69570;BME280;56781;42.292;23.146;2023-02-10T05:36:01;97295.69;;;-10.73;94.52
69570;BME280;56781;42.292;23.146;2023-02-10T05:38:32;97331.16;;;-10.64;94.51
69570;BME280;56781;42.292;23.146;2023-02-10T05:40:59;97314.78;;;-10.85;94.10
69570;BME280;56781;42.292;23.146;2023-02-10T05:43:26;97360.41;;;-10.52;94.52
69570;BME280;56781;42.292;23.146;2023-02-10T05:45:53;97337.41;;;-10.66;94.47
69570;BME280;56781;42.292;23.146;2023-02-10T05:48:21;97359.09;;;-10.46;93.22
69570;BME280;56781;42.292;23.146;2023-02-10T05:50:51;97318.91;;;-10.62;92.93
69570;BME280;56781;42.292;23.146;2023-02-10T05:53:19;97315.31;;;-10.71;92.66
69570;BME280;56781;42.292;23.146;2023-02-10T05:55:46;97333.19;;;-10.79;93.10
69570;BME280;56781;42.292;23.146;2023-02-10T05:58:14;97343.19;;;-10.74;93.22
69570;BME280;56781;42.292;23.146;2023-02-10T06:00:41;97360.56;;;-10.65;92.90
69570;BME280;56781;42.292;23.146;2023-02-10T06:03:08;97336.72;;;-10.68;93.01
69570;BME280;56781;42.292;23.146;2023-02-10T06:05:35;97360.38;;;-10.41;92.75
69570;BME280;56781;42.292;23.146;2023-02-10T06:08:03;97343.00;;;-10.50;91.88
69570;BME280;56781;42.292;23.146;2023-02-10T06:10:30;97380.63;;;-10.25;91.89
69570;BME280;56781;42.292;23.146;2023-02-10T06:12:57;97352.34;;;-10.38;91.99
69570;BME280;56781;42.292;23.146;2023-02-10T06:15:24;97349.09;;;-10.51;92.01
69570;BME280;56781;42.292;23.146;2023-02-10T06:17:51;97354.53;;;-10.54;92.00
69570;BME280;56781;42.292;23.146;2023-02-10T06:20:19;97356.75;;;-10.50;92.22
69570;BME280;56781;42.292;23.146;2023-02-10T06:22:46;97361.38;;;-10.32;91.69
69570;BME280;56781;42.292;23.146;2023-02-10T06:25:13;97369.31;;;-10.24;90.86
69570;BME280;56781;42.292;23.146;2023-02-10T06:27:40;97392.28;;;-9.77;90.85
69570;BME280;56781;42.292;23.146;2023-02-10T06:30:08;97347.00;;;-9.83;90.06
69570;BME280;56781;42.292;23.146;2023-02-10T06:32:35;97381.72;;;-9.13;90.13
69570;BME280;56781;42.292;23.146;2023-02-10T06:35:02;97393.09;;;-8.35;88.67
69570;BME280;56781;42.292;23.146;2023-02-10T06:37:30;97344.38;;;-7.65;83.99
69570;BME280;56781;42.292;23.146;2023-02-10T06:39:57;97362.78;;;-7.01;80.05
69570;BME280;56781;42.292;23.146;2023-02-10T06:42:24;97392.16;;;-6.54;79.10
69570;BME280;56781;42.292;23.146;2023-02-10T06:44:51;97373.69;;;-6.25;77.34
69570;BME280;56781;42.292;23.146;2023-02-10T06:47:18;97387.75;;;-4.77;74.90
69570;BME280;56781;42.292;23.146;2023-02-10T06:49:46;97383.59;;;-4.46;70.83
69570;BME280;56781;42.292;23.146;2023-02-10T06:52:13;97355.59;;;-3.70;67.82
69570;BME280;56781;42.292;23.146;2023-02-10T06:54:43;97383.38;;;-3.28;66.66
69570;BME280;56781;42.292;23.146;2023-02-10T06:57:10;97348.56;;;-2.89;63.16
69570;BME280;56781;42.292;23.146;2023-02-10T06:59:38;97378.09;;;-2.02;60.57
69570;BME280;56781;42.292;23.146;2023-02-10T07:02:05;97379.91;;;-1.56;60.58
69570;BME280;56781;42.292;23.146;2023-02-10T07:04:32;97340.97;;;-1.52;57.14
69570;BME280;56781;42.292;23.146;2023-02-10T07:06:59;97383.13;;;-1.69;57.88
69570;BME280;56781;42.292;23.146;2023-02-10T07:09:27;97343.06;;;-1.33;55.87
69570;BME280;56781;42.292;23.146;2023-02-10T07:11:54;97338.78;;;-1.11;55.24
69570;BME280;56781;42.292;23.146;2023-02-10T07:14:21;97378.53;;;-0.99;56.33
69570;BME280;56781;42.292;23.146;2023-02-10T07:16:48;97364.66;;;-0.12;52.73
69570;BME280;56781;42.292;23.146;2023-02-10T07:19:15;97388.03;;;1.18;50.69
69570;BME280;56781;42.292;23.146;2023-02-10T07:21:42;97384.31;;;1.06;50.07
69570;BME280;56781;42.292;23.146;2023-02-10T07:24:09;97362.94;;;0.94;49.36
69570;BME280;56781;42.292;23.146;2023-02-10T07:26:36;97353.13;;;1.16;48.74
69570;BME280;56781;42.292;23.146;2023-02-10T07:29:03;97371.03;;;1.69;48.05
69570;BME280;56781;42.292;23.146;2023-02-10T07:31:31;97375.22;;;2.05;46.90
69570;BME280;56781;42.292;23.146;2023-02-10T07:34:02;97364.00;;;1.89;46.78
69570;BME280;56781;42.292;23.146;2023-02-10T07:36:29;97359.81;;;1.53;46.45
69570;BME280;56781;42.292;23.146;2023-02-10T07:38:56;97375.91;;;0.39;49.52
69570;BME280;56781;42.292;23.146;2023-02-10T07:41:23;97384.22;;;0.43;49.09
69570;BME280;56781;42.292;23.146;2023-02-10T07:43:51;97383.25;;;1.00;50.78
69570;BME280;56781;42.292;23.146;2023-02-10T07:46:18;97361.44;;;1.54;47.62
69570;BME280;56781;42.292;23.146;2023-02-10T07:48:45;97349.41;;;1.39;48.35
69570;BME280;56781;42.292;23.146;2023-02-10T07:51:12;97329.72;;;2.22;47.29
69570;BME280;56781;42.292;23.146;2023-02-10T07:53:39;97345.56;;;1.41;46.99
69570;BME280;56781;42.292;23.146;2023-02-10T07:56:06;97352.13;;;1.17;48.01
69570;BME280;56781;42.292;23.146;2023-02-10T07:58:35;97353.13;;;2.39;47.49
69570;BME280;56781;42.292;23.146;2023-02-10T08:01:09;97365.72;;;2.70;44.80
69570;BME280;56781;42.292;23.146;2023-02-10T08:03:37;97343.09;;;1.40;47.84
69570;BME280;56781;42.292;23.146;2023-02-10T08:06:05;97338.09;;;2.66;45.76
69570;BME280;56781;42.292;23.146;2023-02-10T08:08:32;97316.28;;;3.55;42.33
69570;BME280;56781;42.292;23.146;2023-02-10T08:10:59;97323.84;;;2.54;43.35
69570;BME280;56781;42.292;23.146;2023-02-10T08:13:30;97356.75;;;2.18;44.88
69570;BME280;56781;42.292;23.146;2023-02-10T08:15:57;97349.69;;;3.50;43.27
69570;BME280;56781;42.292;23.146;2023-02-10T08:18:24;97352.28;;;2.92;44.46
69570;BME280;56781;42.292;23.146;2023-02-10T08:20:51;97349.53;;;3.38;42.49
69570;BME280;56781;42.292;23.146;2023-02-10T08:23:18;97338.94;;;3.90;42.88
69570;BME280;56781;42.292;23.146;2023-02-10T08:25:45;97326.00;;;1.77;46.48
69570;BME280;56781;42.292;23.146;2023-02-10T08:28:13;97312.50;;;1.04;46.74
69570;BME280;56781;42.292;23.146;2023-02-10T08:30:40;97343.69;;;3.16;44.57
69570;BME280;56781;42.292;23.146;2023-02-10T08:33:07;97347.44;;;2.55;46.84
69570;BME280;56781;42.292;23.146;2023-02-10T08:35:36;97321.75;;;1.83;48.03
69570;BME280;56781;42.292;23.146;2023-02-10T08:38:04;97317.75;;;2.66;46.60
69570;BME280;56781;42.292;23.146;2023-02-10T08:40:32;97308.78;;;2.28;46.01
69570;BME280;56781;42.292;23.146;2023-02-10T08:43:00;97317.94;;;1.37;48.99
69570;BME280;56781;42.292;23.146;2023-02-10T08:45:27;97315.69;;;0.64;49.33
69570;BME280;56781;42.292;23.146;2023-02-10T08:47:55;97323.66;;;0.21;52.44
69570;BME280;56781;42.292;23.146;2023-02-10T08:50:22;97320.84;;;-0.20;52.75
69570;BME280;56781;42.292;23.146;2023-02-10T08:52:49;97334.91;;;0.09;53.67
69570;BME280;56781;42.292;23.146;2023-02-10T08:55:16;97312.66;;;-0.47;54.30
69570;BME280;56781;42.292;23.146;2023-02-10T08:57:43;97328.66;;;-0.48;55.50
69570;BME280;56781;42.292;23.146;2023-02-10T09:00:11;97302.13;;;-0.83;54.46
69570;BME280;56781;42.292;23.146;2023-02-10T09:02:38;97330.56;;;-0.20;56.38
69570;BME280;56781;42.292;23.146;2023-02-10T09:05:05;97316.09;;;-0.10;55.32
69570;BME280;56781;42.292;23.146;2023-02-10T09:07:37;97316.72;;;-0.29;53.81
69570;BME280;56781;42.292;23.146;2023-02-10T09:10:04;97299.97;;;-0.43;52.81
69570;BME280;56781;42.292;23.146;2023-02-10T09:12:32;97291.13;;;-0.35;54.87
69570;BME280;56781;42.292;23.146;2023-02-10T09:14:59;97300.69;;;-0.13;53.30
69570;BME280;56781;42.292;23.146;2023-02-10T09:17:26;97314.56;;;0.03;52.97
69570;BME280;56781;42.292;23.146;2023-02-10T09:19:53;97332.16;;;0.17;52.97
69570;BME280;56781;42.292;23.146;2023-02-10T09:22:21;97290.88;;;0.03;54.20
69570;BME280;56781;42.292;23.146;2023-02-10T09:24:49;97301.41;;;0.24;52.83
69570;BME280;56781;42.292;23.146;2023-02-10T09:27:23;97278.94;;;0.00;52.70
69570;BME280;56781;42.292;23.146;2023-02-10T09:29:50;97300.34;;;-0.03;53.36
69570;BME280;56781;42.292;23.146;2023-02-10T09:32:17;97275.22;;;-0.06;52.65
69570;BME280;56781;42.292;23.146;2023-02-10T09:34:44;97289.94;;;-0.11;54.18
69570;BME280;56781;42.292;23.146;2023-02-10T09:37:12;97301.00;;;-0.59;55.46
69570;BME280;56781;42.292;23.146;2023-02-10T09:39:39;97273.28;;;0.03;54.21
69570;BME280;56781;42.292;23.146;2023-02-10T09:42:40;97295.31;;;0.24;55.66
69570;BME280;56781;42.292;23.146;2023-02-10T09:45:19;97267.78;;;0.26;53.53
69570;BME280;56781;42.292;23.146;2023-02-10T09:47:51;97281.69;;;0.41;52.15
69570;BME280;56781;42.292;23.146;2023-02-10T09:53:16;97248.53;;;0.54;54.52
69570;BME280;56781;42.292;23.146;2023-02-10T09:55:54;97282.25;;;0.65;53.48
69570;BME280;56781;42.292;23.146;2023-02-10T10:01:40;97248.94;;;0.22;54.37
69570;BME280;56781;42.292;23.146;2023-02-10T10:04:16;97274.25;;;0.86;52.52
69570;BME280;56781;42.292;23.146;2023-02-10T10:06:48;97219.97;;;0.99;52.03
69570;BME280;56781;42.292;23.146;2023-02-10T10:09:30;97245.28;;;0.52;53.79
69570;BME280;56781;42.292;23.146;2023-02-10T10:11:59;97213.06;;;0.21;53.10
69570;BME280;56781;42.292;23.146;2023-02-10T10:14:36;97249.09;;;-0.29;55.95
69570;BME280;56781;42.292;23.146;2023-02-10T10:20:39;97245.13;;;1.49;52.37
69570;BME280;56781;42.292;23.146;2023-02-10T10:22:52;97227.00;;;1.40;52.34
69570;BME280;56781;42.292;23.146;2023-02-10T10:30:59;97213.22;;;0.89;50.69
69570;BME280;56781;42.292;23.146;2023-02-10T10:33:36;97235.16;;;1.51;50.56
69570;BME280;56781;42.292;23.146;2023-02-10T10:36:13;97229.44;;;1.35;51.21
69570;BME280;56781;42.292;23.146;2023-02-10T10:38:47;97225.03;;;1.82;48.77
69570;BME280;56781;42.292;23.146;2023-02-10T10:41:15;97205.75;;;2.21;49.48
69570;BME280;56781;42.292;23.146;2023-02-10T10:43:48;97218.94;;;2.48;48.98
69570;BME280;56781;42.292;23.146;2023-02-10T10:46:26;97198.78;;;2.60;47.74
69570;BME280;56781;42.292;23.146;2023-02-10T10:48:54;97213.00;;;2.65;47.80
69570;BME280;56781;42.292;23.146;2023-02-10T10:51:22;97195.78;;;2.30;47.33
69570;BME280;56781;42.292;23.146;2023-02-10T10:53:54;97178.03;;;2.63;47.98
69570;BME280;56781;42.292;23.146;2023-02-10T10:56:35;97171.63;;;2.91;46.63
69570;BME280;56781;42.292;23.146;2023-02-10T11:01:41;97161.31;;;3.15;46.56
69570;BME280;56781;42.292;23.146;2023-02-10T11:04:15;97161.31;;;3.21;45.73
69570;BME280;56781;42.292;23.146;2023-02-10T11:06:46;97171.25;;;2.81;46.81
69570;BME280;56781;42.292;23.146;2023-02-10T11:09:32;97185.75;;;2.65;46.49
69570;BME280;56781;42.292;23.146;2023-02-10T11:12:05;97152.31;;;2.06;47.29
69570;BME280;56781;42.292;23.146;2023-02-10T11:14:39;97163.63;;;2.46;48.41
69570;BME280;56781;42.292;23.146;2023-02-10T11:20:03;97151.91;;;2.87;45.31
69570;BME280;56781;42.292;23.146;2023-02-10T11:22:31;97148.19;;;3.01;46.89
69570;BME280;56781;42.292;23.146;2023-02-10T11:25:16;97159.47;;;3.22;46.53
69570;BME280;56781;42.292;23.146;2023-02-10T11:27:54;97165.22;;;3.50;45.93
69570;BME280;56781;42.292;23.146;2023-02-10T11:30:31;97127.47;;;3.30;45.59
69570;BME280;56781;42.292;23.146;2023-02-10T11:33:00;97154.63;;;3.75;46.25
69570;BME280;56781;42.292;23.146;2023-02-10T11:35:29;97126.97;;;3.96;45.06
69570;BME280;56781;42.292;23.146;2023-02-10T11:38:04;97111.31;;;3.63;44.10
69570;BME280;56781;42.292;23.146;2023-02-10T11:40:54;97129.75;;;4.02;44.23
69570;BME280;56781;42.292;23.146;2023-02-10T11:43:30;97137.94;;;3.11;46.33
69570;BME280;56781;42.292;23.146;2023-02-10T11:46:00;97141.91;;;2.37;46.85
69570;BME280;56781;42.292;23.146;2023-02-10T11:48:29;97099.72;;;3.07;45.24
69570;BME280;56781;42.292;23.146;2023-02-10T11:51:12;97102.41;;;3.58;44.67
69570;BME280;56781;42.292;23.146;2023-02-10T11:53:40;97099.88;;;3.94;42.88
69570;BME280;56781;42.292;23.146;2023-02-10T11:59:44;97117.94;;;3.54;43.62
69570;BME280;56781;42.292;23.146;2023-02-10T12:02:29;97095.94;;;3.53;43.87
69570;BME280;56781;42.292;23.146;2023-02-10T12:07:59;97078.53;;;4.08;44.10
69570;BME280;56781;42.292;23.146;2023-02-10T12:10:47;97082.53;;;4.35;42.22
69570;BME280;56781;42.292;23.146;2023-02-10T12:13:56;97099.44;;;4.53;42.44
69570;BME280;56781;42.292;23.146;2023-02-10T12:30:06;97075.72;;;4.58;42.50
69570;BME280;56781;42.292;23.146;2023-02-10T12:36:14;97053.06;;;3.88;41.70
69570;BME280;56781;42.292;23.146;2023-02-10T12:39:03;97053.56;;;3.78;41.42
69570;BME280;56781;42.292;23.146;2023-02-10T12:44:56;97045.66;;;4.15;40.57
69570;BME280;56781;42.292;23.146;2023-02-10T12:53:16;97056.00;;;3.98;40.29
69570;BME280;56781;42.292;23.146;2023-02-10T12:58:19;97063.66;;;4.43;40.93
69570;BME280;56781;42.292;23.146;2023-02-10T13:01:13;97038.19;;;3.87;40.60
69570;BME280;56781;42.292;23.146;2023-02-10T13:03:47;97047.47;;;4.15;39.81
69570;BME280;56781;42.292;23.146;2023-02-10T13:09:39;97027.69;;;4.48;37.86
69570;BME280;56781;42.292;23.146;2023-02-10T13:11:50;97029.09;;;4.50;37.96
69570;BME280;56781;42.292;23.146;2023-02-10T13:14:26;97034.31;;;4.27;38.83
69570;BME280;56781;42.292;23.146;2023-02-10T13:16:57;97018.72;;;4.49;36.99
69570;BME280;56781;42.292;23.146;2023-02-10T13:25:18;97034.34;;;4.02;38.55
69570;BME280;56781;42.292;23.146;2023-02-10T13:27:49;97029.59;;;4.10;38.37
69570;BME280;56781;42.292;23.146;2023-02-10T13:30:42;97020.00;;;3.91;38.02
69570;BME280;56781;42.292;23.146;2023-02-10T13:33:26;97029.22;;;4.07;38.16
69570;BME280;56781;42.292;23.146;2023-02-10T13:35:59;97030.91;;;4.38;37.16
69570;BME280;56781;42.292;23.146;2023-02-10T13:38:28;97019.78;;;3.92;37.89
69570;BME280;56781;42.292;23.146;2023-02-10T13:40:59;97015.81;;;4.20;38.72
69570;BME280;56781;42.292;23.146;2023-02-10T13:43:46;97021.50;;;4.05;37.10
69570;BME280;56781;42.292;23.146;2023-02-10T13:46:25;97036.22;;;4.19;38.45
69570;BME280;56781;42.292;23.146;2023-02-10T13:48:56;97007.59;;;3.91;38.65
69570;BME280;56781;42.292;23.146;2023-02-10T13:51:36;97000.16;;;4.00;36.83
69570;BME280;56781;42.292;23.146;2023-02-10T13:54:04;96998.00;;;4.09;37.84
69570;BME280;56781;42.292;23.146;2023-02-10T13:56:33;97011.84;;;4.29;37.72
69570;BME280;56781;42.292;23.146;2023-02-10T14:02:11;97015.09;;;4.13;38.00
69570;BME280;56781;42.292;23.146;2023-02-10T14:04:45;96995.00;;;3.87;37.43
69570;BME280;56781;42.292;23.146;2023-02-10T14:12:59;97034.97;;;4.22;38.92
69570;BME280;56781;42.292;23.146;2023-02-10T14:15:29;97010.88;;;3.87;37.23
69570;BME280;56781;42.292;23.146;2023-02-10T14:18:03;97010.44;;;3.90;38.79
69570;BME280;56781;42.292;23.146;2023-02-10T14:20:35;96996.75;;;3.74;40.62
69570;BME280;56781;42.292;23.146;2023-02-10T14:23:04;97005.66;;;3.80;41.19
69570;BME280;56781;42.292;23.146;2023-02-10T14:25:40;97039.66;;;4.02;40.82
69570;BME280;56781;42.292;23.146;2023-02-10T14:28:20;97003.44;;;3.77;41.15
69570;BME280;56781;42.292;23.146;2023-02-10T14:30:52;97033.19;;;3.97;39.78
69570;BME280;56781;42.292;23.146;2023-02-10T14:33:28;97015.44;;;3.80;39.56
69570;BME280;56781;42.292;23.146;2023-02-10T14:35:58;97024.56;;;3.84;41.62
69570;BME280;56781;42.292;23.146;2023-02-10T14:38:28;97037.97;;;3.89;40.72